Weather History for Hillsdale, MI

Change the Weather History Date:

Wednesday, September 18, 2013

  Actual Average Record
Temperature  
Mean Temperature 62 °F -  
Max Temperature 75 °F 71 °F 91 °F (1955)
Min Temperature 50 °F 50 °F 33 °F (1959)
Degree Days  
Heating Degree Days 2    
Growing Degree Days 12 (Base 50)    
Moisture  
Dew Point 53 °F    
Average Humidity 72    
Maximum Humidity 98    
Minimum Humidity 40    
Precipitation  
Precipitation 0.00 in - - ()
Sea Level Pressure  
Sea Level Pressure 30.13 in    
Wind  
Wind Speed 3 mph (SE)    
Max Wind Speed 6 mph    
Max Gust Speed -    
Visibility 10 miles    
Events      
Averages and records for this station are not official NWS values.
T = Trace of Precipitation, MM = Missing Value Source: NWS Daily Summary

Daily Weather History Graph

Daily Weather History Graph

Search for Another Location

Airport:

Trip Planner

Search our weather history database for the weather conditions in past years. The results will help you decide how hot, cold, wet, or windy it might be!

Date:

Astronomy

Sep. 18, 2013 Rise Set
Actual Time 7:21 AM EDT 7:42 PM EDT
Civil Twilight 6:53 AM EDT 8:10 PM EDT
Nautical Twilight 6:21 AM EDT 8:42 PM EDT
Astronomical Twilight 5:47 AM EDT 9:16 PM EDT
Moon 7:04 PM EDT (9/18) 6:23 AM EDT (9/18)
Length of Visible Light 13h 16m
Length of Day
12h 20m
Waxing Gibbous, 99% of the Moon is Illuminated
Sep 18
Waxing Gibbous
Sep 19
Full
Sep 26
Last Quarter
Oct 4
New
Oct 11
First Quarter

Hourly Weather History & Observations

Time (EDT) Temp. Dew Point Humidity Pressure Visibility Wind Dir Wind Speed Gust Speed Precip Events Conditions
12:15 AM 54.1 °F 49.1 °F 83% 30.21 in 10.0 mi ESE 4.6 mph - N/A   Clear
12:35 AM 54.1 °F 49.6 °F 85% 30.21 in 10.0 mi SE 4.6 mph - N/A   Clear
12:54 AM 54.5 °F 50.2 °F 85% 30.20 in 10.0 mi ESE 3.5 mph - N/A   Clear
1:15 AM 54.1 °F 50.7 °F 88% 30.20 in 10.0 mi ESE 4.6 mph - N/A   Clear
1:34 AM 54.7 °F 51.3 °F 88% 30.20 in 10.0 mi ESE 3.5 mph - N/A   Clear
1:55 AM 54.1 °F 51.4 °F 91% 30.19 in 10.0 mi SE 4.6 mph - N/A   Clear
2:14 AM 54.9 °F 51.4 °F 88% 30.19 in 10.0 mi SE 4.6 mph - N/A   Clear
2:35 AM 54.9 °F 50.9 °F 86% 30.19 in 10.0 mi SSE 3.5 mph - N/A   Clear
2:55 AM 54.7 °F 50.5 °F 86% 30.18 in 10.0 mi SE 3.5 mph - N/A   Clear
3:14 AM 54.0 °F 50.5 °F 88% 30.18 in 10.0 mi SE 3.5 mph - N/A   Clear
3:35 AM 54.0 °F 50.7 °F 89% 30.18 in 10.0 mi SE 3.5 mph - N/A   Clear
3:55 AM 53.8 °F 50.5 °F 89% 30.17 in 10.0 mi Calm Calm - N/A   Clear
4:14 AM 53.8 °F 50.5 °F 89% 30.17 in 10.0 mi Calm Calm - N/A   Clear
4:35 AM 53.6 °F 50.5 °F 89% 30.17 in 10.0 mi SSE 3.5 mph - N/A   Clear
4:54 AM 53.8 °F 50.7 °F 89% 30.16 in 10.0 mi SE 3.5 mph - N/A   Clear
5:15 AM 53.1 °F 50.5 °F 91% 30.17 in 10.0 mi Calm Calm - N/A   Clear
5:35 AM 51.1 °F 49.6 °F 95% 30.17 in 10.0 mi Calm Calm - N/A   Clear
5:54 AM 50.7 °F 50.0 °F 97% 30.17 in 10.0 mi Calm Calm - N/A   Clear
6:15 AM 50.7 °F 50.2 °F 98% 30.17 in 10.0 mi Calm Calm - N/A   Clear
6:34 AM 53.1 °F 51.4 °F 94% 30.17 in 10.0 mi Calm Calm - N/A   Clear
6:55 AM 53.4 °F 51.3 °F 92% 30.16 in 10.0 mi Calm Calm - N/A   Clear
7:14 AM 53.8 °F 51.3 °F 91% 30.17 in 10.0 mi Calm Calm - N/A   Clear
7:35 AM 54.0 °F 51.3 °F 91% 30.17 in 10.0 mi SE 3.5 mph - N/A   Clear
7:55 AM 54.0 °F 51.4 °F 91% 30.17 in 10.0 mi Calm Calm - N/A   Clear
8:14 AM 54.0 °F 51.3 °F 91% 30.17 in 10.0 mi Calm Calm - N/A   Clear
8:35 AM 54.0 °F 51.6 °F 92% 30.17 in 10.0 mi Calm Calm - N/A   Clear
8:55 AM 54.7 °F 52.3 °F 92% 30.17 in 10.0 mi Calm Calm - N/A   Clear
9:14 AM 55.9 °F 53.1 °F 90% 30.17 in 10.0 mi Calm Calm - N/A   Clear
9:35 AM 57.9 °F 53.1 °F 84% 30.18 in 10.0 mi Calm Calm - N/A   Clear
9:55 AM 60.1 °F 54.1 °F 81% 30.17 in 10.0 mi Calm Calm - N/A   Clear
10:14 AM 61.7 °F 54.1 °F 76% 30.17 in 10.0 mi South 3.5 mph - N/A   Clear
10:35 AM 62.8 °F 55.2 °F 76% 30.17 in 10.0 mi SSE 4.6 mph - N/A   Clear
10:54 AM 65.5 °F 54.1 °F 67% 30.17 in 10.0 mi SSW 5.8 mph - N/A   Clear
11:14 AM 66.9 °F 54.9 °F 65% 30.17 in 10.0 mi Calm Calm - N/A   Clear
11:35 AM 68.4 °F 54.9 °F 62% 30.16 in 10.0 mi Calm Calm - N/A   Clear
11:54 AM 70.0 °F 55.2 °F 59% 30.16 in 10.0 mi South 3.5 mph - N/A   Clear
12:14 PM 70.7 °F 53.8 °F 55% 30.15 in 10.0 mi SW 3.5 mph - N/A   Clear
12:35 PM 71.4 °F 53.6 °F 53% 30.15 in 10.0 mi Calm Calm - N/A   Clear
12:54 PM 73.0 °F 53.8 °F 51% 30.14 in 10.0 mi SE 3.5 mph - N/A   Clear
1:15 PM 73.2 °F 53.2 °F 49% 30.13 in 10.0 mi ESE 4.6 mph - N/A   Clear
1:35 PM 73.2 °F 52.2 °F 48% 30.12 in 10.0 mi ESE 3.5 mph - N/A   Clear
1:54 PM 73.4 °F 51.4 °F 46% 30.12 in 10.0 mi Calm Calm - N/A   Clear
2:15 PM 73.8 °F 51.4 °F 45% 30.12 in 10.0 mi ESE 4.6 mph - N/A   Clear
2:35 PM 74.3 °F 50.9 °F 44% 30.12 in 10.0 mi South 3.5 mph - N/A   Clear
2:54 PM 73.9 °F 51.1 °F 45% 30.11 in 10.0 mi Calm Calm - N/A   Clear
3:15 PM 75.0 °F 50.4 °F 42% 30.10 in 10.0 mi Calm Calm - N/A   Clear
3:34 PM 74.8 °F 48.9 °F 40% 30.09 in 10.0 mi Calm Calm - N/A   Scattered Clouds
3:54 PM 75.7 °F 50.7 °F 41% 30.09 in 10.0 mi South 3.5 mph - N/A   Scattered Clouds
4:15 PM 75.9 °F 50.9 °F 41% 30.08 in 10.0 mi South 4.6 mph - N/A   Clear
4:34 PM 75.6 °F 51.4 °F 43% 30.07 in 10.0 mi Calm Calm - N/A   Clear
4:55 PM 75.6 °F 51.3 °F 42% 30.07 in 10.0 mi South 4.6 mph - N/A   Clear
5:14 PM 75.7 °F 51.1 °F 42% 30.06 in 10.0 mi SE 4.6 mph - N/A   Clear
5:34 PM 75.7 °F 51.4 °F 43% 30.05 in 10.0 mi SSE 3.5 mph - N/A   Clear
5:55 PM 75.6 °F 50.9 °F 42% 30.05 in 10.0 mi SSE 4.6 mph - N/A   Clear
6:14 PM 73.9 °F 51.8 °F 46% 30.05 in 10.0 mi SSE 3.5 mph - N/A   Scattered Clouds
6:35 PM 73.4 °F 53.2 °F 49% 30.05 in 10.0 mi Calm Calm - N/A   Scattered Clouds
6:55 PM 72.9 °F 53.8 °F 51% 30.05 in 10.0 mi Calm Calm - N/A   Mostly Cloudy
7:14 PM 71.8 °F 54.3 °F 54% 30.05 in 10.0 mi Calm Calm - N/A   Mostly Cloudy
7:35 PM 68.5 °F 56.5 °F 65% 30.05 in 10.0 mi Calm Calm - N/A   Scattered Clouds
7:55 PM 64.8 °F 58.5 °F 80% 30.05 in 10.0 mi Calm Calm - N/A   Clear
8:14 PM 65.5 °F 57.0 °F 74% 30.05 in 10.0 mi SE 3.5 mph - N/A   Clear
8:35 PM 64.0 °F 56.7 °F 77% 30.06 in 10.0 mi SE 3.5 mph - N/A   Clear
8:54 PM 64.6 °F 55.8 °F 73% 30.06 in 10.0 mi SE 3.5 mph - N/A   Clear
9:15 PM 65.5 °F 54.5 °F 68% 30.06 in 10.0 mi SE 3.5 mph - N/A   Clear
9:35 PM 65.7 °F 54.0 °F 66% 30.06 in 10.0 mi SSE 4.6 mph - N/A   Clear
9:54 PM 64.9 °F 54.3 °F 68% 30.05 in 10.0 mi SE 4.6 mph - N/A   Clear
10:15 PM 65.1 °F 55.8 °F 72% 30.06 in 10.0 mi SE 5.8 mph - N/A   Clear
10:34 PM 63.9 °F 57.0 °F 78% 30.05 in 10.0 mi SE 4.6 mph - N/A   Clear
10:54 PM 63.1 °F 58.3 °F 84% 30.06 in 10.0 mi SE 3.5 mph - N/A   Clear
11:15 PM 62.8 °F 59.4 °F 89% 30.06 in 10.0 mi SE 3.5 mph - N/A   Clear
11:34 PM 62.2 °F 59.7 °F 91% 30.06 in 10.0 mi Calm Calm - N/A   Clear
11:54 PM 61.7 °F 59.9 °F 94% 30.06 in 7.0 mi SE 3.5 mph - N/A   Clear